Time;durP1;ratioP1;P1;durP2;ratioP2;P2;SDS_P1;SDS_P2;PMS_P1;PMS_P2;Temp;Humidity;BMP_temperature;BMP_pressure;BME280_temperature;BME280_humidity;BME280_pressure;Samples;Min_cycle;Max_cycle;Signal;HPM_P1;HPM_P2
2022/05/30 00:00:38;;;;;;;4.50;2.60;;;;;;;;;;5037418;28;20634;-45
2022/05/30 00:03:06;;;;;;;4.35;2.10;;;;;;;;;;5037229;28;20292;-44
2022/05/30 00:05:34;;;;;;;3.55;2.20;;;;;;;;;;5037152;28;20256;-45
2022/05/30 00:08:01;;;;;;;2.40;1.92;;;;;;;;;;5037393;28;20288;-44
2022/05/30 00:10:29;;;;;;;2.97;2.05;;;;;;;;;;5037462;28;20197;-44
2022/05/30 00:12:56;;;;;;;4.22;2.15;;;;;;;;;;5037464;28;20215;-44
2022/05/30 00:15:23;;;;;;;6.57;2.15;;;;;;;;;;5037347;28;20204;-45
2022/05/30 00:17:55;;;;;;;5.57;1.98;;;;;;;;;;5037372;28;20262;-44
2022/05/30 00:20:23;;;;;;;5.03;2.08;;;;;;;;;;5037014;28;20826;-44
2022/05/30 00:22:50;;;;;;;3.40;1.98;;;;;;;;;;5037559;28;20271;-44
2022/05/30 00:25:17;;;;;;;4.28;2.00;;;;;;;;;;5037155;28;20197;-45
2022/05/30 00:27:45;;;;;;;6.60;1.90;;;;;;;;;;5036399;28;20212;-44
2022/05/30 00:30:13;;;;;;;5.97;2.13;;;;;;;;;;5037147;28;20205;-44
2022/05/30 00:32:40;;;;;;;3.42;2.03;;;;;;;;;;5035864;28;20220;-44
2022/05/30 00:35:08;;;;;;;7.32;2.20;;;;;;;;;;5036666;28;20635;-45
2022/05/30 00:37:35;;;;;;;5.47;2.38;;;;;;;;;;5036679;28;20624;-45
2022/05/30 00:40:03;;;;;;;2.50;1.90;;;;;;;;;;5035755;28;20262;-45
2022/05/30 00:42:31;;;;;;;3.58;1.70;;;;;;;;;;5036600;28;20635;-47
2022/05/30 00:44:58;;;;;;;3.90;2.00;;;;;;;;;;5036395;28;20213;-44
2022/05/30 00:47:25;;;;;;;4.40;2.13;;;;;;;;;;5036605;28;20219;-44
2022/05/30 00:49:54;;;;;;;5.15;2.13;;;;;;;;;;5035863;28;20631;-45
2022/05/30 00:52:26;;;;;;;4.25;2.10;;;;;;;;;;5036411;28;20229;-44
2022/05/30 00:54:58;;;;;;;3.72;2.13;;;;;;;;;;5036863;28;20190;-45
2022/05/30 00:57:28;;;;;;;3.17;2.10;;;;;;;;;;5068818;28;20204;-45
2022/05/30 01:00:05;;;;;;;3.55;2.00;;;;;;;;;;5035395;28;20644;-45
2022/05/30 01:02:36;;;;;;;2.13;1.80;;;;;;;;;;5022819;28;20201;-45
2022/05/30 01:07:49;;;;;;;7.30;2.53;;;;;;;;;;5002453;28;20289;-44
2022/05/30 01:10:19;;;;;;;3.60;2.10;;;;;;;;;;5016163;28;20205;-45
2022/05/30 01:12:52;;;;;;;5.13;2.15;;;;;;;;;;5015603;28;20216;-44
2022/05/30 01:15:22;;;;;;;6.22;2.40;;;;;;;;;;5016330;28;20202;-44
2022/05/30 01:18:01;;;;;;;4.43;2.33;;;;;;;;;;5014585;28;20655;-45
2022/05/30 01:20:29;;;;;;;5.53;2.50;;;;;;;;;;5015325;28;20220;-45
2022/05/30 01:23:33;;;;;;;5.85;2.30;;;;;;;;;;5016015;28;20222;-44
2022/05/30 01:26:11;;;;;;;4.78;2.35;;;;;;;;;;5015455;28;20259;-44
2022/05/30 01:29:12;;;;;;;4.93;2.47;;;;;;;;;;5000563;28;20655;-44
2022/05/30 01:31:42;;;;;;;4.28;2.08;;;;;;;;;;5015093;28;20263;-44
2022/05/30 01:34:09;;;;;;;3.50;2.10;;;;;;;;;;5015877;28;20213;-44
2022/05/30 01:36:38;;;;;;;3.33;2.17;;;;;;;;;;5015280;28;20197;-44
2022/05/30 01:39:05;;;;;;;4.40;2.25;;;;;;;;;;5015131;28;20201;-44
2022/05/30 01:41:44;;;;;;;4.00;2.30;;;;;;;;;;5014869;28;20284;-44
2022/05/30 01:44:14;;;;;;;10.02;2.83;;;;;;;;;;5015029;28;20216;-45
2022/05/30 01:46:41;;;;;;;8.63;2.92;;;;;;;;;;5014652;28;20202;-44
2022/05/30 01:49:09;;;;;;;5.15;2.53;;;;;;;;;;5014657;28;20259;-44
2022/05/30 01:51:36;;;;;;;5.78;2.42;;;;;;;;;;5014713;28;20209;-45
2022/05/30 01:54:06;;;;;;;8.43;2.63;;;;;;;;;;5015056;28;20213;-45
2022/05/30 01:57:08;;;;;;;5.43;2.63;;;;;;;;;;5014260;28;20663;-45
2022/05/30 01:59:46;;;;;;;2.95;2.20;;;;;;;;;;5014475;28;20201;-45
2022/05/30 02:02:42;;;;;;;3.00;2.08;;;;;;;;;;5015327;28;20209;-44
2022/05/30 02:05:11;;;;;;;5.63;2.58;;;;;;;;;;5014091;28;20201;-45
2022/05/30 02:07:38;;;;;;;4.40;2.40;;;;;;;;;;5014225;28;20624;-44
2022/05/30 02:10:07;;;;;;;3.13;2.25;;;;;;;;;;5014187;28;20228;-45
2022/05/30 02:12:36;;;;;;;5.03;2.10;;;;;;;;;;5014403;28;20201;-45
2022/05/30 02:15:27;;;;;;;5.80;2.65;;;;;;;;;;4978342;28;20663;-44
2022/05/30 02:17:58;;;;;;;6.40;2.30;;;;;;;;;;5014189;28;20209;-45
2022/05/30 02:20:25;;;;;;;3.55;2.50;;;;;;;;;;5014131;28;20201;-45
2022/05/30 02:22:52;;;;;;;4.72;2.75;;;;;;;;;;5013951;28;20201;-44
2022/05/30 02:25:19;;;;;;;4.85;2.70;;;;;;;;;;5014846;28;20574;-44
2022/05/30 02:27:46;;;;;;;3.00;2.25;;;;;;;;;;5014112;28;20216;-45
2022/05/30 02:30:14;;;;;;;13.32;2.80;;;;;;;;;;5013281;28;20279;-44
2022/05/30 02:32:42;;;;;;;5.90;2.63;;;;;;;;;;5014179;28;20231;-45
2022/05/30 02:37:55;;;;;;;3.50;2.35;;;;;;;;;;5013861;28;20181;-45
2022/05/30 02:40:51;;;;;;;5.32;2.90;;;;;;;;;;4997663;28;20198;-44
2022/05/30 02:43:39;;;;;;;7.85;2.75;;;;;;;;;;5014527;28;20233;-45
2022/05/30 02:46:06;;;;;;;4.18;2.45;;;;;;;;;;5013640;28;20535;-44
2022/05/30 02:48:34;;;;;;;5.10;2.47;;;;;;;;;;5013617;28;20648;-45
2022/05/30 02:51:01;;;;;;;3.92;2.25;;;;;;;;;;5013626;28;20706;-46
2022/05/30 02:53:28;;;;;;;4.45;2.33;;;;;;;;;;5014533;28;20649;-44
2022/05/30 02:56:18;;;;;;;5.00;2.75;;;;;;;;;;5001731;28;20212;-45
2022/05/30 02:58:46;;;;;;;4.10;2.80;;;;;;;;;;5014239;28;20216;-45
2022/05/30 03:01:13;;;;;;;2.70;2.50;;;;;;;;;;5013847;28;20632;-45
2022/05/30 03:03:42;;;;;;;3.97;2.38;;;;;;;;;;5014101;28;20549;-44
2022/05/30 03:06:10;;;;;;;3.88;2.60;;;;;;;;;;5014956;28;20328;-44
2022/05/30 03:08:37;;;;;;;6.15;2.78;;;;;;;;;;5014567;28;20660;-44
2022/05/30 03:11:11;;;;;;;4.75;2.78;;;;;;;;;;5014803;28;20213;-44
2022/05/30 03:13:38;;;;;;;3.13;2.55;;;;;;;;;;5013671;28;20528;-45
2022/05/30 03:16:06;;;;;;;4.05;2.80;;;;;;;;;;5013354;28;20206;-44
2022/05/30 03:18:37;;;;;;;5.75;2.50;;;;;;;;;;5014067;28;20209;-44
2022/05/30 03:21:05;;;;;;;6.72;2.97;;;;;;;;;;5014494;28;20205;-44
2022/05/30 03:23:33;;;;;;;7.45;2.63;;;;;;;;;;5013358;28;20304;-45
2022/05/30 03:26:05;;;;;;;5.97;2.20;;;;;;;;;;5014046;28;20279;-45
2022/05/30 03:28:33;;;;;;;3.85;2.50;;;;;;;;;;5014342;28;20202;-44
2022/05/30 03:31:02;;;;;;;3.38;2.40;;;;;;;;;;5013447;28;20205;-45
2022/05/30 03:33:35;;;;;;;3.53;2.60;;;;;;;;;;5013713;28;20202;-45
2022/05/30 03:36:07;;;;;;;4.43;2.65;;;;;;;;;;5013484;28;20210;-44
2022/05/30 03:38:57;;;;;;;3.83;2.45;;;;;;;;;;4977824;28;20209;-44
2022/05/30 03:41:43;;;;;;;2.85;2.22;;;;;;;;;;5017790;28;20257;-45
2022/05/30 03:44:17;;;;;;;4.90;2.83;;;;;;;;;;5017005;28;20240;-44
2022/05/30 03:46:44;;;;;;;5.30;2.55;;;;;;;;;;5017827;28;20671;-44
2022/05/30 03:49:11;;;;;;;6.07;2.60;;;;;;;;;;5017155;28;20197;-44
2022/05/30 03:51:38;;;;;;;3.15;2.55;;;;;;;;;;5017883;28;20216;-44
2022/05/30 03:54:07;;;;;;;6.05;2.35;;;;;;;;;;5017192;28;20268;-44
2022/05/30 03:56:34;;;;;;;3.55;2.33;;;;;;;;;;5017014;28;20534;-44
2022/05/30 03:59:02;;;;;;;2.90;2.22;;;;;;;;;;5018433;28;20232;-45
2022/05/30 04:01:30;;;;;;;2.75;2.08;;;;;;;;;;5046781;28;20572;-47
2022/05/30 04:03:57;;;;;;;2.60;2.40;;;;;;;;;;5029782;28;20722;-47
2022/05/30 04:06:25;;;;;;;3.65;2.40;;;;;;;;;;5024736;28;20252;-45
2022/05/30 04:08:53;;;;;;;6.18;2.60;;;;;;;;;;5015883;28;20276;-44
2022/05/30 04:11:39;;;;;;;5.03;2.10;;;;;;;;;;4996995;28;20233;-44
2022/05/30 04:14:24;;;;;;;4.88;2.50;;;;;;;;;;5016222;28;20229;-45
2022/05/30 04:16:59;;;;;;;5.68;2.55;;;;;;;;;;5015346;28;20306;-44
2022/05/30 04:19:26;;;;;;;6.45;2.67;;;;;;;;;;5015859;28;20308;-45
2022/05/30 04:21:54;;;;;;;6.38;2.90;;;;;;;;;;5015756;28;20236;-44
2022/05/30 04:24:30;;;;;;;5.78;2.80;;;;;;;;;;5015732;28;20236;-45
2022/05/30 04:27:02;;;;;;;4.65;2.67;;;;;;;;;;5015395;28;20225;-45
2022/05/30 04:29:30;;;;;;;3.53;2.60;;;;;;;;;;5015481;28;20290;-44
2022/05/30 04:32:16;;;;;;;4.20;2.60;;;;;;;;;;5016180;28;20248;-44
2022/05/30 04:34:44;;;;;;;8.00;2.88;;;;;;;;;;5015694;28;20553;-44
2022/05/30 04:37:12;;;;;;;5.40;2.90;;;;;;;;;;5014729;28;20337;-45
2022/05/30 04:39:43;;;;;;;5.07;2.80;;;;;;;;;;5015463;28;20675;-45
2022/05/30 04:42:28;;;;;;;6.07;2.90;;;;;;;;;;5016136;28;20228;-47
2022/05/30 04:45:31;;;;;;;3.92;2.22;;;;;;;;;;4955466;29;20697;-44
2022/05/30 04:48:13;;;;;;;5.75;2.40;;;;;;;;;;5009167;28;20233;-44
2022/05/30 04:50:41;;;;;;;3.67;2.50;;;;;;;;;;5013977;28;20609;-44
2022/05/30 04:53:08;;;;;;;3.30;2.78;;;;;;;;;;5013776;28;20253;-48
2022/05/30 04:55:41;;;;;;;3.78;2.55;;;;;;;;;;5016053;28;20236;-43
2022/05/30 04:58:28;;;;;;;3.95;2.35;;;;;;;;;;5014531;28;20222;-44
2022/05/30 05:01:08;;;;;;;3.08;2.08;;;;;;;;;;5014428;28;20220;-46
2022/05/30 05:03:39;;;;;;;3.83;2.45;;;;;;;;;;5014858;28;20229;-43
2022/05/30 05:06:14;;;;;;;3.65;2.40;;;;;;;;;;5013796;28;20311;-46
2022/05/30 05:09:18;;;;;;;3.15;2.17;;;;;;;;;;5014129;28;20228;-43
2022/05/30 05:11:57;;;;;;;6.00;2.75;;;;;;;;;;5015288;28;20236;-46
2022/05/30 05:14:43;;;;;;;5.10;2.72;;;;;;;;;;5015245;28;20293;-44
2022/05/30 05:17:45;;;;;;;3.60;2.38;;;;;;;;;;4994091;28;20252;-45
2022/05/30 05:20:14;;;;;;;3.78;2.60;;;;;;;;;;4990775;28;20222;-44
2022/05/30 05:22:41;;;;;;;3.17;2.75;;;;;;;;;;4994860;28;20300;-43
2022/05/30 05:25:09;;;;;;;3.63;2.47;;;;;;;;;;4994489;28;20337;-46
2022/05/30 05:27:39;;;;;;;4.03;2.70;;;;;;;;;;4995535;28;20264;-44
2022/05/30 05:30:07;;;;;;;6.00;3.15;;;;;;;;;;4994413;28;20222;-45
2022/05/30 05:32:34;;;;;;;4.82;3.20;;;;;;;;;;5010846;28;20629;-43
2022/05/30 05:35:04;;;;;;;3.35;2.72;;;;;;;;;;5027376;28;20241;-50
2022/05/30 05:37:33;;;;;;;4.05;3.17;;;;;;;;;;5033879;28;20574;-44
2022/05/30 05:40:24;;;;;;;4.53;2.72;;;;;;;;;;4988936;28;20282;-43
2022/05/30 05:42:51;;;;;;;4.15;2.80;;;;;;;;;;5034825;28;20591;-44
2022/05/30 05:45:18;;;;;;;3.17;2.85;;;;;;;;;;5034608;28;20314;-44
2022/05/30 05:47:46;;;;;;;7.20;2.95;;;;;;;;;;5034799;28;20204;-43
2022/05/30 05:50:13;;;;;;;4.07;2.60;;;;;;;;;;5034726;28;20263;-43
2022/05/30 05:52:40;;;;;;;3.75;2.90;;;;;;;;;;5034758;28;20270;-43
2022/05/30 05:55:15;;;;;;;2.40;2.20;;;;;;;;;;5034497;28;20211;-43
2022/05/30 05:57:41;;;;;;;4.28;2.55;;;;;;;;;;5034557;28;20259;-43
2022/05/30 06:00:09;;;;;;;3.38;2.58;;;;;;;;;;5034729;28;20208;-44
2022/05/30 06:02:44;;;;;;;7.45;2.85;;;;;;;;;;5035662;28;20208;-43
2022/05/30 06:05:14;;;;;;;2.80;2.60;;;;;;;;;;5020859;28;20217;-43
2022/05/30 06:08:01;;;;;;;4.47;2.97;;;;;;;;;;5015373;28;20195;-43
2022/05/30 06:13:33;;;;;;;8.55;4.75;;;;;;;;;;5014696;28;20244;-43
2022/05/30 06:16:00;;;;;;;6.15;4.32;;;;;;;;;;5014416;28;20240;-43
2022/05/30 06:18:50;;;;;;;5.03;2.95;;;;;;;;;;5014581;28;20220;-43
2022/05/30 06:21:18;;;;;;;3.10;2.80;;;;;;;;;;5014289;28;20205;-43
2022/05/30 06:23:48;;;;;;;3.08;2.78;;;;;;;;;;5014476;28;20239;-43
2022/05/30 06:26:44;;;;;;;3.22;2.72;;;;;;;;;;5014954;28;20216;-43
2022/05/30 06:29:20;;;;;;;3.28;2.97;;;;;;;;;;5015310;28;20227;-43
2022/05/30 06:31:49;;;;;;;6.18;4.43;;;;;;;;;;5015238;28;20216;-43
2022/05/30 06:34:16;;;;;;;4.55;3.40;;;;;;;;;;5014391;28;20285;-43
2022/05/30 06:36:44;;;;;;;4.18;3.67;;;;;;;;;;5014129;28;20206;-43
2022/05/30 06:39:12;;;;;;;4.32;3.33;;;;;;;;;;5014969;28;20212;-44
2022/05/30 06:41:48;;;;;;;3.33;2.95;;;;;;;;;;5014083;28;20494;-44
2022/05/30 06:44:16;;;;;;;3.50;3.10;;;;;;;;;;5014701;28;20236;-42
2022/05/30 06:47:03;;;;;;;5.32;3.15;;;;;;;;;;5015038;28;20212;-43
2022/05/30 06:49:50;;;;;;;3.08;2.70;;;;;;;;;;5014955;28;20202;-43
2022/05/30 06:52:23;;;;;;;3.55;2.60;;;;;;;;;;5014145;28;20188;-43
2022/05/30 06:54:50;;;;;;;2.95;2.67;;;;;;;;;;5014944;28;20220;-43
2022/05/30 07:00:04;;;;;;;3.78;2.80;;;;;;;;;;5014031;28;20205;-44
2022/05/30 07:02:36;;;;;;;4.68;3.20;;;;;;;;;;5014147;28;20202;-43
2022/05/30 07:05:39;;;;;;;3.28;2.97;;;;;;;;;;4973645;28;20234;-43
2022/05/30 07:08:29;;;;;;;3.15;2.75;;;;;;;;;;5011663;28;20208;-43
2022/05/30 07:11:25;;;;;;;3.55;2.78;;;;;;;;;;5010029;28;20656;-43
2022/05/30 07:13:52;;;;;;;3.45;2.63;;;;;;;;;;5014127;28;20202;-43
2022/05/30 07:16:23;;;;;;;2.75;2.50;;;;;;;;;;5016568;28;20270;-43
2022/05/30 07:18:51;;;;;;;2.92;2.63;;;;;;;;;;5017494;28;20189;-44
2022/05/30 07:21:19;;;;;;;3.15;2.85;;;;;;;;;;5017431;28;20205;-43
2022/05/30 07:24:05;;;;;;;4.32;2.70;;;;;;;;;;5018488;28;20697;-43
2022/05/30 07:26:51;;;;;;;2.70;2.50;;;;;;;;;;5018446;28;20208;-43
2022/05/30 07:29:36;;;;;;;2.65;1.92;;;;;;;;;;5018761;28;20189;-43
2022/05/30 07:32:22;;;;;;;2.22;2.03;;;;;;;;;;5018148;28;20678;-43
2022/05/30 07:35:08;;;;;;;2.33;2.10;;;;;;;;;;5018256;28;20287;-43
2022/05/30 07:37:53;;;;;;;2.40;1.88;;;;;;;;;;5018342;28;20228;-43
2022/05/30 07:40:56;;;;;;;2.20;2.00;;;;;;;;;;4977276;28;20221;-43
2022/05/30 07:43:44;;;;;;;2.60;2.40;;;;;;;;;;5015168;28;20710;-42
2022/05/30 07:46:23;;;;;;;4.18;2.13;;;;;;;;;;5018207;28;20224;-43
2022/05/30 07:49:11;;;;;;;2.58;2.35;;;;;;;;;;5017147;28;20267;-43
2022/05/30 07:52:04;;;;;;;1.80;1.67;;;;;;;;;;5018128;28;20205;-42
2022/05/30 07:54:39;;;;;;;2.50;2.30;;;;;;;;;;5017445;28;20529;-43
2022/05/30 07:57:14;;;;;;;1.88;1.77;;;;;;;;;;5017321;28;20220;-43
2022/05/30 07:59:41;;;;;;;2.25;1.85;;;;;;;;;;5017110;28;20531;-43
2022/05/30 08:02:08;;;;;;;2.20;2.00;;;;;;;;;;5017104;28;20586;-43
2022/05/30 08:04:37;;;;;;;1.83;1.70;;;;;;;;;;5016605;28;20232;-43
2022/05/30 08:07:24;;;;;;;1.80;1.70;;;;;;;;;;5018066;28;20229;-43
2022/05/30 08:10:24;;;;;;;2.60;1.92;;;;;;;;;;5017086;28;20201;-43
2022/05/30 08:12:51;;;;;;;1.38;1.27;;;;;;;;;;5016752;28;20288;-43
2022/05/30 08:15:44;;;;;;;1.40;1.30;;;;;;;;;;5013725;28;20201;-42
2022/05/30 08:18:19;;;;;;;1.58;1.48;;;;;;;;;;5016630;28;20224;-42
2022/05/30 08:20:50;;;;;;;1.48;1.38;;;;;;;;;;5016794;28;20193;-43
2022/05/30 08:23:20;;;;;;;1.40;1.30;;;;;;;;;;5016552;28;20260;-42
2022/05/30 08:25:48;;;;;;;1.50;1.40;;;;;;;;;;5016494;28;20543;-42
2022/05/30 08:28:18;;;;;;;1.52;1.40;;;;;;;;;;5016274;28;20208;-43
2022/05/30 08:30:45;;;;;;;3.35;1.40;;;;;;;;;;5016591;28;20205;-43
2022/05/30 08:33:35;;;;;;;1.13;1.02;;;;;;;;;;5016511;28;20213;-42
2022/05/30 08:36:24;;;;;;;1.27;1.17;;;;;;;;;;5016740;28;20225;-44
2022/05/30 08:41:46;;;;;;;1.52;1.00;;;;;;;;;;5016355;28;20218;-45
2022/05/30 08:41:47;;;;;;;1.17;1.05;;;;;;;;;;5016096;28;20197;-44
2022/05/30 08:44:35;;;;;;;3.00;1.08;;;;;;;;;;5017382;28;20212;-43
2022/05/30 08:47:50;;;;;;;1.50;1.40;;;;;;;;;;5013963;28;20727;-43
2022/05/30 08:50:35;;;;;;;1.20;1.10;;;;;;;;;;5015704;28;20656;-43
2022/05/30 08:53:22;;;;;;;1.00;0.90;;;;;;;;;;5016077;28;20628;-43
2022/05/30 08:55:54;;;;;;;1.10;0.90;;;;;;;;;;5016297;28;20200;-43
2022/05/30 08:58:51;;;;;;;1.85;1.33;;;;;;;;;;5016077;28;20268;-43
2022/05/30 09:01:33;;;;;;;1.00;1.00;;;;;;;;;;5015949;28;20294;-43
2022/05/30 09:04:47;;;;;;;1.20;0.88;;;;;;;;;;5016580;28;20197;-43
2022/05/30 09:07:20;;;;;;;2.85;1.35;;;;;;;;;;5015674;28;20233;-43
2022/05/30 09:10:09;;;;;;;3.38;1.38;;;;;;;;;;4999638;28;20621;-44
2022/05/30 09:12:55;;;;;;;1.05;0.95;;;;;;;;;;4999976;28;20205;-44
2022/05/30 09:16:04;;;;;;;3.35;0.90;;;;;;;;;;5006728;28;20220;-43
2022/05/30 09:18:45;;;;;;;1.20;1.10;;;;;;;;;;5016168;28;20193;-42
2022/05/30 09:21:14;;;;;;;2.38;1.00;;;;;;;;;;4999491;28;20205;-43
2022/05/30 09:23:45;;;;;;;2.88;1.17;;;;;;;;;;5015487;28;20663;-43
2022/05/30 09:26:21;;;;;;;1.30;1.20;;;;;;;;;;5015341;28;20229;-42
2022/05/30 09:29:41;;;;;;;2.35;1.30;;;;;;;;;;5002102;28;20627;-45
2022/05/30 09:32:48;;;;;;;2.00;1.35;;;;;;;;;;4983044;28;20650;-43
2022/05/30 09:36:15;;;;;;;1.10;1.00;;;;;;;;;;4964511;28;20202;-43
2022/05/30 09:39:20;;;;;;;1.10;1.00;;;;;;;;;;4963793;28;20557;-43
2022/05/30 09:42:01;;;;;;;0.88;0.88;;;;;;;;;;5008981;28;20556;-42
2022/05/30 09:44:39;;;;;;;0.85;0.80;;;;;;;;;;5015333;28;20646;-42
2022/05/30 09:47:26;;;;;;;1.55;0.90;;;;;;;;;;5016276;28;20209;-43
2022/05/30 09:50:21;;;;;;;1.13;0.90;;;;;;;;;;5013739;28;20206;-42
2022/05/30 09:52:51;;;;;;;1.13;1.00;;;;;;;;;;5014869;28;20205;-42
2022/05/30 09:55:43;;;;;;;0.70;0.70;;;;;;;;;;5014935;28;20668;-43
2022/05/30 09:58:14;;;;;;;1.13;1.00;;;;;;;;;;5015013;28;20208;-43
2022/05/30 10:01:09;;;;;;;1.20;1.10;;;;;;;;;;5002251;28;20201;-43
2022/05/30 10:03:40;;;;;;;2.60;1.42;;;;;;;;;;5014513;28;20209;-43
2022/05/30 10:06:22;;;;;;;1.42;0.93;;;;;;;;;;5014455;28;20247;-43
2022/05/30 10:09:07;;;;;;;0.82;0.82;;;;;;;;;;5014854;28;20227;-43
2022/05/30 10:11:36;;;;;;;0.60;0.60;;;;;;;;;;5014407;28;20201;-44
2022/05/30 10:14:21;;;;;;;1.10;0.73;;;;;;;;;;5014269;28;20209;-43
2022/05/30 10:17:35;;;;;;;2.60;0.85;;;;;;;;;;5006106;28;20628;-44
2022/05/30 10:20:09;;;;;;;0.85;0.85;;;;;;;;;;5014481;28;20201;-44
2022/05/30 10:30:55;;;;;;;0.68;0.68;;;;;;;;;;5015196;28;20211;-43
2022/05/30 10:33:55;;;;;;;1.05;0.60;;;;;;;;;;4968582;28;20646;-43
2022/05/30 10:36:41;;;;;;;8.63;4.43;;;;;;;;;;4998297;28;20195;-43
2022/05/30 10:39:27;;;;;;;6.50;2.40;;;;;;;;;;5014117;28;20644;-43
2022/05/30 10:42:06;;;;;;;0.80;0.80;;;;;;;;;;5014094;28;20657;-43
2022/05/30 10:44:47;;;;;;;1.25;0.52;;;;;;;;;;4998001;28;20185;-43
2022/05/30 10:47:39;;;;;;;0.60;0.60;;;;;;;;;;4998146;28;20289;-44
2022/05/30 10:50:17;;;;;;;0.40;0.40;;;;;;;;;;5014125;28;20205;-45
2022/05/30 10:52:52;;;;;;;4.63;0.63;;;;;;;;;;5012824;28;20287;-44
2022/05/30 10:55:35;;;;;;;1.33;1.20;;;;;;;;;;5017699;28;20295;-45
2022/05/30 10:58:09;;;;;;;1.88;1.52;;;;;;;;;;5001092;28;20237;-44
2022/05/30 11:00:41;;;;;;;2.63;1.77;;;;;;;;;;5000839;28;20299;-46
2022/05/30 11:03:32;;;;;;;3.20;1.52;;;;;;;;;;5016909;28;20261;-45
2022/05/30 11:06:08;;;;;;;3.95;1.45;;;;;;;;;;4999559;28;20228;-45
2022/05/30 11:08:53;;;;;;;9.68;6.03;;;;;;;;;;5016849;28;20243;-50
2022/05/30 11:11:32;;;;;;;1.98;1.20;;;;;;;;;;5001066;28;20243;-45
2022/05/30 11:14:27;;;;;;;1.58;1.40;;;;;;;;;;5002421;28;20229;-45
2022/05/30 11:17:29;;;;;;;3.33;2.30;;;;;;;;;;5014872;28;20237;-46
2022/05/30 11:20:37;;;;;;;4.22;3.08;;;;;;;;;;5015574;28;20225;-52
2022/05/30 11:23:06;;;;;;;2.75;2.55;;;;;;;;;;5016755;28;20229;-46
2022/05/30 11:26:03;;;;;;;3.45;2.28;;;;;;;;;;5016452;28;20225;-52
2022/05/30 11:28:37;;;;;;;4.85;3.33;;;;;;;;;;5016870;28;20240;-47
2022/05/30 11:31:20;;;;;;;2.75;1.83;;;;;;;;;;5017552;28;20587;-48
2022/05/30 11:34:04;;;;;;;3.80;2.20;;;;;;;;;;5016445;28;20671;-48
2022/05/30 11:36:37;;;;;;;6.30;2.85;;;;;;;;;;5016742;28;20232;-50
2022/05/30 11:39:07;;;;;;;4.50;2.03;;;;;;;;;;5017314;28;20241;-47
2022/05/30 11:41:49;;;;;;;1.58;1.40;;;;;;;;;;5017365;28;20240;-48
2022/05/30 11:44:45;;;;;;;3.53;1.50;;;;;;;;;;5017685;28;20256;-48
2022/05/30 11:47:12;;;;;;;1.67;1.25;;;;;;;;;;5006891;28;20244;-47
2022/05/30 11:50:19;;;;;;;3.95;1.80;;;;;;;;;;5016797;28;20761;-50
2022/05/30 11:53:13;;;;;;;1.42;1.23;;;;;;;;;;5016572;28;20238;-47
2022/05/30 11:55:50;;;;;;;1.52;1.00;;;;;;;;;;5016061;28;20237;-48
2022/05/30 11:58:25;;;;;;;4.90;2.15;;;;;;;;;;5015936;28;20225;-48
2022/05/30 12:00:53;;;;;;;1.65;1.15;;;;;;;;;;5016511;28;20225;-47
2022/05/30 12:03:26;;;;;;;1.50;1.00;;;;;;;;;;5016763;28;20241;-49
2022/05/30 12:06:20;;;;;;;1.17;0.85;;;;;;;;;;5015892;28;20241;-48
2022/05/30 12:09:20;;;;;;;0.88;0.80;;;;;;;;;;5016402;28;20237;-50
2022/05/30 12:12:09;;;;;;;1.23;0.90;;;;;;;;;;5015960;28;20221;-51
2022/05/30 12:15:10;;;;;;;1.33;0.80;;;;;;;;;;5016328;28;20245;-51
2022/05/30 12:24:18;;;;;;;0.80;0.70;;;;;;;;;;5010382;28;20240;-48
2022/05/30 12:26:56;;;;;;;1.90;1.00;;;;;;;;;;5016510;28;20237;-47
2022/05/30 12:29:39;;;;;;;1.65;0.85;;;;;;;;;;5016275;28;20682;-49
2022/05/30 12:32:21;;;;;;;1.35;0.98;;;;;;;;;;5016324;28;20284;-50
2022/05/30 12:34:57;;;;;;;1.95;0.98;;;;;;;;;;5015604;28;20230;-56
2022/05/30 12:37:46;;;;;;;4.13;0.93;;;;;;;;;;5016258;28;20221;-50
2022/05/30 12:40:19;;;;;;;1.42;0.90;;;;;;;;;;5016302;28;20317;-53
2022/05/30 12:43:06;;;;;;;1.17;0.80;;;;;;;;;;5012631;28;20672;-53
2022/05/30 12:45:33;;;;;;;0.65;0.50;;;;;;;;;;5004762;28;20280;-52
2022/05/30 12:48:12;;;;;;;0.55;0.50;;;;;;;;;;4995677;28;20688;-52
2022/05/30 12:50:43;;;;;;;0.70;0.60;;;;;;;;;;4994822;28;20226;-50
2022/05/30 12:53:12;;;;;;;1.30;0.68;;;;;;;;;;4995894;28;20260;-49
2022/05/30 12:55:51;;;;;;;1.30;0.80;;;;;;;;;;4994829;28;20230;-51
2022/05/30 12:58:38;;;;;;;1.83;0.98;;;;;;;;;;4995970;28;20237;-49
2022/05/30 13:01:23;;;;;;;0.85;0.80;;;;;;;;;;4975640;28;20260;-49
2022/05/30 13:04:25;;;;;;;3.30;0.85;;;;;;;;;;4996026;28;20230;-48
2022/05/30 13:07:04;;;;;;;0.90;0.90;;;;;;;;;;4995920;28;20245;-49
2022/05/30 13:09:34;;;;;;;2.15;1.00;;;;;;;;;;4995847;28;20237;-52
2022/05/30 13:12:07;;;;;;;1.13;0.70;;;;;;;;;;4995687;28;20241;-50
2022/05/30 13:14:39;;;;;;;0.90;0.90;;;;;;;;;;4995170;28;20226;-52
2022/05/30 13:17:18;;;;;;;1.52;0.95;;;;;;;;;;4995569;28;20229;-47
2022/05/30 13:19:51;;;;;;;0.95;0.80;;;;;;;;;;4994975;28;20566;-50
2022/05/30 13:22:29;;;;;;;1.70;0.85;;;;;;;;;;4995942;28;20676;-49
2022/05/30 13:24:56;;;;;;;1.83;0.80;;;;;;;;;;4994689;28;20675;-54
2022/05/30 13:27:26;;;;;;;1.00;0.90;;;;;;;;;;4995771;28;20230;-49
2022/05/30 13:29:53;;;;;;;1.55;1.20;;;;;;;;;;5011336;28;20715;-48
2022/05/30 13:32:23;;;;;;;1.30;0.90;;;;;;;;;;5015242;28;20237;-48
2022/05/30 13:34:55;;;;;;;1.02;0.88;;;;;;;;;;5013933;28;20230;-48
2022/05/30 13:37:28;;;;;;;1.10;1.00;;;;;;;;;;5015064;28;20308;-50
2022/05/30 13:40:04;;;;;;;1.13;1.00;;;;;;;;;;5014186;28;20233;-49
2022/05/30 13:42:53;;;;;;;2.22;1.30;;;;;;;;;;5014874;28;20240;-53
2022/05/30 13:45:44;;;;;;;3.28;1.23;;;;;;;;;;5014603;28;20738;-51
2022/05/30 13:48:18;;;;;;;2.97;1.20;;;;;;;;;;5015060;28;20710;-50
2022/05/30 13:51:30;;;;;;;2.20;1.27;;;;;;;;;;5014201;28;20240;-50
2022/05/30 13:53:59;;;;;;;5.38;1.60;;;;;;;;;;5002693;28;20295;-52
2022/05/30 13:56:36;;;;;;;2.72;1.40;;;;;;;;;;5014831;28;20237;-48
2022/05/30 13:59:06;;;;;;;2.70;1.30;;;;;;;;;;5014664;28;20302;-50
2022/05/30 14:01:36;;;;;;;2.97;1.42;;;;;;;;;;5013491;28;20298;-45
2022/05/30 14:04:20;;;;;;;2.15;1.48;;;;;;;;;;5014078;28;20747;-47
2022/05/30 14:06:48;;;;;;;8.27;1.67;;;;;;;;;;5012689;28;20259;-50
2022/05/30 14:09:16;;;;;;;3.58;1.30;;;;;;;;;;5014298;28;20232;-48
2022/05/30 14:11:46;;;;;;;2.10;1.42;;;;;;;;;;5013194;28;20233;-48
2022/05/30 14:14:40;;;;;;;4.35;1.52;;;;;;;;;;5013902;28;20214;-48
2022/05/30 14:17:09;;;;;;;4.00;1.55;;;;;;;;;;5014595;28;20233;-48
2022/05/30 14:19:38;;;;;;;2.53;1.40;;;;;;;;;;5013833;28;20573;-46
2022/05/30 14:22:15;;;;;;;7.50;2.10;;;;;;;;;;5014093;28;20664;-46
2022/05/30 14:24:55;;;;;;;3.17;2.05;;;;;;;;;;5013204;28;20560;-48
2022/05/30 14:27:23;;;;;;;2.47;1.75;;;;;;;;;;5013139;28;20925;-49
2022/05/30 14:29:51;;;;;;;6.13;1.77;;;;;;;;;;5013876;28;20237;-48
2022/05/30 14:32:18;;;;;;;1.80;1.70;;;;;;;;;;5013016;28;20291;-49
2022/05/30 14:35:00;;;;;;;4.30;1.75;;;;;;;;;;5013156;28;20236;-48
2022/05/30 14:37:29;;;;;;;3.20;2.20;;;;;;;;;;5013791;28;20229;-50
2022/05/30 14:40:01;;;;;;;6.60;2.75;;;;;;;;;;5014025;28;20728;-49
2022/05/30 14:42:36;;;;;;;5.03;1.92;;;;;;;;;;5014199;28;20530;-50
2022/05/30 14:45:11;;;;;;;2.90;2.10;;;;;;;;;;5013771;28;20239;-47
2022/05/30 14:47:49;;;;;;;2.90;2.10;;;;;;;;;;5014063;28;20241;-53
2022/05/30 14:50:35;;;;;;;2.47;2.00;;;;;;;;;;5013672;28;20305;-49
2022/05/30 14:53:05;;;;;;;2.35;1.80;;;;;;;;;;5014038;28;20228;-48
2022/05/30 14:55:33;;;;;;;2.90;1.70;;;;;;;;;;5014261;28;20229;-48
2022/05/30 14:58:10;;;;;;;4.03;2.40;;;;;;;;;;5013082;28;20245;-48
2022/05/30 15:00:58;;;;;;;8.07;1.63;;;;;;;;;;5012982;28;20679;-54
2022/05/30 15:06:23;;;;;;;5.13;1.42;;;;;;;;;;5013502;28;20233;-48
2022/05/30 15:08:52;;;;;;;1.98;1.35;;;;;;;;;;5013517;28;20710;-48
2022/05/30 15:11:24;;;;;;;3.20;1.63;;;;;;;;;;5014084;28;20378;-48
2022/05/30 15:13:54;;;;;;;1.70;1.60;;;;;;;;;;5007040;28;20265;-50
2022/05/30 15:16:22;;;;;;;4.95;1.88;;;;;;;;;;5003839;28;20220;-45
2022/05/30 15:18:50;;;;;;;3.28;1.80;;;;;;;;;;5000870;28;20295;-47
2022/05/30 15:21:21;;;;;;;3.58;1.70;;;;;;;;;;5001765;28;20256;-45
2022/05/30 15:23:49;;;;;;;3.67;1.58;;;;;;;;;;5001660;28;20674;-47
2022/05/30 15:26:21;;;;;;;2.47;1.77;;;;;;;;;;5003629;28;20279;-46
2022/05/30 15:28:50;;;;;;;3.30;1.63;;;;;;;;;;5003531;28;20229;-46
2022/05/30 15:31:21;;;;;;;2.58;1.75;;;;;;;;;;5003626;28;20218;-46
2022/05/30 15:33:48;;;;;;;4.03;1.90;;;;;;;;;;5002624;28;20218;-46
2022/05/30 15:36:18;;;;;;;2.45;2.08;;;;;;;;;;5002293;28;20230;-47
2022/05/30 15:39:17;;;;;;;3.72;1.83;;;;;;;;;;5007286;28;20237;-45
2022/05/30 15:41:49;;;;;;;2.88;1.98;;;;;;;;;;5007084;28;20279;-45
2022/05/30 15:44:20;;;;;;;4.57;2.15;;;;;;;;;;5004960;28;20225;-49
2022/05/30 15:46:48;;;;;;;2.45;2.08;;;;;;;;;;5006545;28;20234;-47
2022/05/30 15:49:18;;;;;;;4.97;1.90;;;;;;;;;;5007807;28;20542;-46
2022/05/30 15:51:49;;;;;;;2.00;1.40;;;;;;;;;;5003178;28;20309;-45
2022/05/30 15:57:18;;;;;;;2.42;2.00;;;;;;;;;;5010772;28;20301;-46
2022/05/30 15:59:51;;;;;;;2.15;1.92;;;;;;;;;;5006710;28;20220;-45
2022/05/30 16:02:19;;;;;;;2.88;1.77;;;;;;;;;;5007987;28;20210;-45
2022/05/30 16:04:46;;;;;;;2.88;1.77;;;;;;;;;;5015686;28;20567;-45
2022/05/30 16:07:20;;;;;;;3.63;2.08;;;;;;;;;;5016388;28;20233;-46
2022/05/30 16:09:49;;;;;;;2.20;1.90;;;;;;;;;;5016757;28;20275;-45
2022/05/30 16:12:22;;;;;;;2.25;1.80;;;;;;;;;;5016612;28;20222;-45